KFOK/FOK METAR and TAF weather

Enter ICAO airport designator
Station Type Date Time Source
KFOK METAR 2021/05/12 22:53 UTC NOAA

KFOK 122253Z 31006KT 10SM OVC100 17/01 A3013 RMK AO2 SLP203 T01670011


Station Type Date Time Source
KFOK Decoded METAR 2021/05/12 22:53 UTC NOAA

THE GABRESKI AIRPORT, NY, United States (KFOK) 40-51N 072-37W 33M
May 12, 2021 - 06:53 PM EDT / 2021.05.12 2253 UTC
Wind: from the NW (310 degrees) at 7 MPH (6 KT):0
Visibility: 10 mile(s):0
Sky conditions: overcast
Temperature: 62.1 F (16.7 C)
Dew Point: 34.0 F (1.1 C)
Relative Humidity: 34%
Pressure (altimeter): 30.13 in. Hg (1020 hPa)
ob: KFOK 122253Z 31006KT 10SM OVC100 17/01 A3013 RMK AO2 SLP203 T01670011
cycle: 23

Station Type Date Time Source
KFOK TAF UTC NOAA

Error!

Example: see airport list